• Join FlightAware (Why Join?)
  • Login
  • US Flag 
01:25AM EDT


 

Airport Tracker/Info


-or-


 

Live Flight TrackerFlight Track Log ✈ ASQ6115 ✈ 26-Apr-2013 ✈ KORD - KMSN

Flight Track Log - Related Links

Times and Time Zones

All times are in EDT time to prevent confusion due to time zone crossing. See the ASQ6115 flight status page for this flight to view local times or setup timezone preferences in your user account.

Time Position Orientation Groundspeed Altitude Reporting Facility
EDT Latitude Longitude Course Direction KTS MPH feet Rate Location/Type
07:26PM 41.9667 -87.9333 345° North 179 206 2,400  Level Chicago TRACON
07:27PM 41.9667 -88.0000 270° West 200 230 4,300 1,320 Climbing Chicago TRACON
07:28PM 41.9667 -88.0833 270° West 248 285 5,000 420 Climbing Chicago TRACON
07:29PM 42.2817 -87.9996 350° North  Level FlightAware Approximate
07:29PM 41.9564 -88.1358 255° West 228 262 5,000  Level Chicago Center
07:30PM 42.3615 -88.0205 346° North  Level FlightAware Approximate
07:30PM 41.9728 -88.2256 284° West 259 298 7,000  Level Chicago Center
07:31PM 42.4405 -88.0468 346° North  Level FlightAware Approximate
07:31PM 42.0325 -88.2642 334° Northwest 293 337 9,900  Level Chicago Center
07:32PM 42.5194 -88.0735 345° North  Level FlightAware Approximate
07:32PM 42.1006 -88.1950 37° Northeast 302 348 11,200  Level Chicago Center
07:33PM 42.1944 -88.0947 38° Northeast 349 402 12,000 360 Climbing Chicago Center
07:34PM 42.2864 -88.0358 25° Northeast 378 435 12,000  Level Chicago Center
07:35PM 42.3831 -88.0375 359° North 366 421 12,100  Climbing Chicago Center
07:36PM 42.4864 -88.0364 360° North 369 425 12,100 -60 Level Chicago Center
07:37PM 42.5992 -88.0706 347° North 363 418 12,000 -60 Descending Chicago Center
07:38PM 42.6925 -88.1183 339° North 357 411 12,000  Level Chicago Center
07:39PM 42.7881 -88.1692 339° North 366 421 12,000  Level Chicago Center
07:40PM 42.8819 -88.2169 340° North 362 417 12,000 -300 Level Chicago Center
07:41PM 42.9564 -88.3003 321° Northwest 353 406 11,500 -780 Descending Chicago Center
07:42PM 42.9847 -88.4264 287° West 354 407 10,500 -780 Descending Chicago Center
07:43PM 43.0175 -88.5633 288° West 329 379 10,000 -300 Descending Chicago Center
07:44PM 43.0519 -88.6828 292° West 331 381 10,000 -180 Level Chicago Center
07:45PM 43.0878 -88.7992 293° West 333 383 9,700 -1,020 Descending Chicago Center
07:46PM 43.1125 -88.8878 291° West 260 299 8,000 -1,680 Descending Chicago Center
07:47PM 43.1389 -88.9747 293° West 253 291 6,300 -1,620 Descending Chicago Center
07:48PM 43.1622 -89.0561 291° West 241 277 4,700 -1,260 Descending Chicago Center
07:49PM 43.1853 -89.1331 292° West 228 262 3,800 -780 Descending Chicago Center
07:50PM 43.2114 -89.2189 293° West 217 250 3,100 -720 Descending Chicago Center